sensor_id;sensor_type;location;lat;lon;timestamp;pressure;altitude;pressure_sealevel;temperature
33267;BMP180;19638;49.080;11.896;2023-07-08T00:03:23;96694.00;;;15.60
33267;BMP180;19638;49.080;11.896;2023-07-08T00:07:29;96685.00;;;15.60
33267;BMP180;19638;49.080;11.896;2023-07-08T00:11:34;96675.00;;;15.60
33267;BMP180;19638;49.080;11.896;2023-07-08T00:15:40;96674.00;;;15.60
33267;BMP180;19638;49.080;11.896;2023-07-08T00:19:44;96668.00;;;15.60
33267;BMP180;19638;49.080;11.896;2023-07-08T00:23:48;96672.00;;;15.70
33267;BMP180;19638;49.080;11.896;2023-07-08T00:27:53;96677.00;;;15.80
33267;BMP180;19638;49.080;11.896;2023-07-08T00:31:59;96685.00;;;15.70
33267;BMP180;19638;49.080;11.896;2023-07-08T00:36:08;96684.00;;;15.70
33267;BMP180;19638;49.080;11.896;2023-07-08T00:40:23;96684.00;;;15.60
33267;BMP180;19638;49.080;11.896;2023-07-08T00:44:28;96680.00;;;15.60
33267;BMP180;19638;49.080;11.896;2023-07-08T00:48:35;96679.00;;;15.60
33267;BMP180;19638;49.080;11.896;2023-07-08T00:52:40;96681.00;;;15.60
33267;BMP180;19638;49.080;11.896;2023-07-08T00:56:47;96679.00;;;15.60
33267;BMP180;19638;49.080;11.896;2023-07-08T01:00:58;96683.00;;;15.70
33267;BMP180;19638;49.080;11.896;2023-07-08T01:05:05;96677.00;;;15.90
33267;BMP180;19638;49.080;11.896;2023-07-08T01:09:13;96679.00;;;16.00
33267;BMP180;19638;49.080;11.896;2023-07-08T01:13:18;96675.00;;;16.10
33267;BMP180;19638;49.080;11.896;2023-07-08T01:17:23;96670.00;;;16.10
33267;BMP180;19638;49.080;11.896;2023-07-08T01:21:38;96665.00;;;16.10
33267;BMP180;19638;49.080;11.896;2023-07-08T01:25:47;96658.00;;;15.90
33267;BMP180;19638;49.080;11.896;2023-07-08T01:29:50;96655.00;;;15.90
33267;BMP180;19638;49.080;11.896;2023-07-08T01:34:01;96657.00;;;15.80
33267;BMP180;19638;49.080;11.896;2023-07-08T01:38:05;96657.00;;;15.80
33267;BMP180;19638;49.080;11.896;2023-07-08T01:42:14;96650.00;;;15.80
33267;BMP180;19638;49.080;11.896;2023-07-08T01:46:22;96651.00;;;16.20
33267;BMP180;19638;49.080;11.896;2023-07-08T01:50:35;96653.00;;;16.70
33267;BMP180;19638;49.080;11.896;2023-07-08T01:54:41;96656.00;;;16.70
33267;BMP180;19638;49.080;11.896;2023-07-08T01:58:45;96655.00;;;16.40
33267;BMP180;19638;49.080;11.896;2023-07-08T02:02:52;96656.00;;;16.10
33267;BMP180;19638;49.080;11.896;2023-07-08T02:06:57;96656.00;;;15.80
33267;BMP180;19638;49.080;11.896;2023-07-08T02:11:02;96654.00;;;15.60
33267;BMP180;19638;49.080;11.896;2023-07-08T02:15:13;96659.00;;;15.40
33267;BMP180;19638;49.080;11.896;2023-07-08T02:19:16;96655.00;;;15.30
33267;BMP180;19638;49.080;11.896;2023-07-08T02:23:19;96660.00;;;15.30
33267;BMP180;19638;49.080;11.896;2023-07-08T02:27:25;96661.00;;;15.30
33267;BMP180;19638;49.080;11.896;2023-07-08T02:31:29;96645.00;;;15.20
33267;BMP180;19638;49.080;11.896;2023-07-08T02:35:34;96649.00;;;15.30
33267;BMP180;19638;49.080;11.896;2023-07-08T02:39:37;96651.00;;;15.20
33267;BMP180;19638;49.080;11.896;2023-07-08T02:43:42;96650.00;;;15.10
33267;BMP180;19638;49.080;11.896;2023-07-08T02:47:47;96651.00;;;15.10
33267;BMP180;19638;49.080;11.896;2023-07-08T02:51:51;96652.00;;;15.00
33267;BMP180;19638;49.080;11.896;2023-07-08T02:55:56;96653.00;;;14.90
33267;BMP180;19638;49.080;11.896;2023-07-08T02:59:59;96641.00;;;14.80
33267;BMP180;19638;49.080;11.896;2023-07-08T03:04:13;96645.00;;;14.70
33267;BMP180;19638;49.080;11.896;2023-07-08T03:08:21;96644.00;;;14.70
33267;BMP180;19638;49.080;11.896;2023-07-08T03:12:37;96649.00;;;14.60
33267;BMP180;19638;49.080;11.896;2023-07-08T03:16:40;96645.00;;;14.50
33267;BMP180;19638;49.080;11.896;2023-07-08T03:20:47;96640.00;;;14.50
33267;BMP180;19638;49.080;11.896;2023-07-08T03:24:54;96646.00;;;14.40
33267;BMP180;19638;49.080;11.896;2023-07-08T03:29:00;96645.00;;;14.40
33267;BMP180;19638;49.080;11.896;2023-07-08T03:33:08;96656.00;;;14.40
33267;BMP180;19638;49.080;11.896;2023-07-08T03:37:14;96662.00;;;14.30
33267;BMP180;19638;49.080;11.896;2023-07-08T03:41:19;96654.00;;;14.40
33267;BMP180;19638;49.080;11.896;2023-07-08T03:45:22;96657.00;;;14.40
33267;BMP180;19638;49.080;11.896;2023-07-08T03:49:25;96653.00;;;14.30
33267;BMP180;19638;49.080;11.896;2023-07-08T03:53:29;96654.00;;;14.30
33267;BMP180;19638;49.080;11.896;2023-07-08T03:57:34;96653.00;;;14.40
33267;BMP180;19638;49.080;11.896;2023-07-08T04:01:37;96655.00;;;14.40
33267;BMP180;19638;49.080;11.896;2023-07-08T04:05:46;96662.00;;;14.50
33267;BMP180;19638;49.080;11.896;2023-07-08T04:09:50;96655.00;;;14.70
33267;BMP180;19638;49.080;11.896;2023-07-08T04:13:53;96660.00;;;15.00
33267;BMP180;19638;49.080;11.896;2023-07-08T04:17:57;96657.00;;;15.30
33267;BMP180;19638;49.080;11.896;2023-07-08T04:22:00;96661.00;;;15.60
33267;BMP180;19638;49.080;11.896;2023-07-08T04:26:05;96674.00;;;15.90
33267;BMP180;19638;49.080;11.896;2023-07-08T04:30:17;96664.00;;;16.30
33267;BMP180;19638;49.080;11.896;2023-07-08T04:34:29;96673.00;;;16.70
33267;BMP180;19638;49.080;11.896;2023-07-08T04:38:34;96674.00;;;17.20
33267;BMP180;19638;49.080;11.896;2023-07-08T04:42:40;96665.00;;;17.50
33267;BMP180;19638;49.080;11.896;2023-07-08T04:46:52;96666.00;;;17.90
33267;BMP180;19638;49.080;11.896;2023-07-08T04:50:56;96665.00;;;18.30
33267;BMP180;19638;49.080;11.896;2023-07-08T04:55:06;96668.00;;;19.00
33267;BMP180;19638;49.080;11.896;2023-07-08T04:59:15;96674.00;;;19.50
33267;BMP180;19638;49.080;11.896;2023-07-08T05:03:19;96666.00;;;19.90
33267;BMP180;19638;49.080;11.896;2023-07-08T05:07:22;96660.00;;;20.20
33267;BMP180;19638;49.080;11.896;2023-07-08T05:11:26;96666.00;;;20.50
33267;BMP180;19638;49.080;11.896;2023-07-08T05:15:30;96673.00;;;20.60
33267;BMP180;19638;49.080;11.896;2023-07-08T05:19:37;96682.00;;;20.80
33267;BMP180;19638;49.080;11.896;2023-07-08T05:23:43;96682.00;;;21.00
33267;BMP180;19638;49.080;11.896;2023-07-08T05:27:46;96674.00;;;21.20
33267;BMP180;19638;49.080;11.896;2023-07-08T05:31:56;96677.00;;;21.40
33267;BMP180;19638;49.080;11.896;2023-07-08T05:36:01;96689.00;;;21.60
33267;BMP180;19638;49.080;11.896;2023-07-08T05:40:07;96681.00;;;21.80
33267;BMP180;19638;49.080;11.896;2023-07-08T05:44:10;96698.00;;;22.00
33267;BMP180;19638;49.080;11.896;2023-07-08T05:48:15;96700.00;;;22.50
33267;BMP180;19638;49.080;11.896;2023-07-08T05:52:18;96706.00;;;23.20
33267;BMP180;19638;49.080;11.896;2023-07-08T05:56:21;96714.00;;;23.90
33267;BMP180;19638;49.080;11.896;2023-07-08T06:00:24;96709.00;;;24.60
33267;BMP180;19638;49.080;11.896;2023-07-08T06:04:44;96716.00;;;25.40
33267;BMP180;19638;49.080;11.896;2023-07-08T06:08:55;96726.00;;;25.80
33267;BMP180;19638;49.080;11.896;2023-07-08T06:12:59;96735.00;;;26.30
33267;BMP180;19638;49.080;11.896;2023-07-08T06:17:10;96731.00;;;26.90
33267;BMP180;19638;49.080;11.896;2023-07-08T06:21:14;96719.00;;;27.30
33267;BMP180;19638;49.080;11.896;2023-07-08T06:25:19;96716.00;;;27.10
33267;BMP180;19638;49.080;11.896;2023-07-08T06:29:25;96711.00;;;26.70
33267;BMP180;19638;49.080;11.896;2023-07-08T06:33:28;96704.00;;;26.70
33267;BMP180;19638;49.080;11.896;2023-07-08T06:37:35;96700.00;;;27.00
33267;BMP180;19638;49.080;11.896;2023-07-08T06:41:38;96709.00;;;27.30
33267;BMP180;19638;49.080;11.896;2023-07-08T06:45:44;96718.00;;;27.50
33267;BMP180;19638;49.080;11.896;2023-07-08T06:49:47;96705.00;;;28.00
33267;BMP180;19638;49.080;11.896;2023-07-08T06:53:52;96697.00;;;28.40
33267;BMP180;19638;49.080;11.896;2023-07-08T06:58:01;96699.00;;;28.30
33267;BMP180;19638;49.080;11.896;2023-07-08T07:02:05;96684.00;;;28.30
33267;BMP180;19638;49.080;11.896;2023-07-08T07:06:08;96688.00;;;28.20
33267;BMP180;19638;49.080;11.896;2023-07-08T07:10:14;96692.00;;;28.40
33267;BMP180;19638;49.080;11.896;2023-07-08T07:14:17;96698.00;;;28.50
33267;BMP180;19638;49.080;11.896;2023-07-08T07:18:26;96705.00;;;29.00
33267;BMP180;19638;49.080;11.896;2023-07-08T07:22:29;96708.00;;;29.50
33267;BMP180;19638;49.080;11.896;2023-07-08T07:26:34;96704.00;;;29.90
33267;BMP180;19638;49.080;11.896;2023-07-08T07:30:54;96707.00;;;30.10
33267;BMP180;19638;49.080;11.896;2023-07-08T07:34:58;96706.00;;;30.30
33267;BMP180;19638;49.080;11.896;2023-07-08T07:39:03;96701.00;;;30.20
33267;BMP180;19638;49.080;11.896;2023-07-08T07:43:08;96704.00;;;30.30
33267;BMP180;19638;49.080;11.896;2023-07-08T07:47:15;96711.00;;;30.10
33267;BMP180;19638;49.080;11.896;2023-07-08T07:51:20;96717.00;;;30.20
33267;BMP180;19638;49.080;11.896;2023-07-08T07:55:28;96725.00;;;30.60
33267;BMP180;19638;49.080;11.896;2023-07-08T07:59:33;96725.00;;;31.20
33267;BMP180;19638;49.080;11.896;2023-07-08T08:03:41;96732.00;;;31.50
33267;BMP180;19638;49.080;11.896;2023-07-08T08:07:44;96730.00;;;31.50
33267;BMP180;19638;49.080;11.896;2023-07-08T08:11:49;96728.00;;;32.10
33267;BMP180;19638;49.080;11.896;2023-07-08T08:15:57;96733.00;;;32.70
33267;BMP180;19638;49.080;11.896;2023-07-08T08:20:02;96735.00;;;32.60
33267;BMP180;19638;49.080;11.896;2023-07-08T08:24:11;96734.00;;;33.20
33267;BMP180;19638;49.080;11.896;2023-07-08T08:28:18;96731.00;;;33.50
33267;BMP180;19638;49.080;11.896;2023-07-08T08:32:22;96739.00;;;33.20
33267;BMP180;19638;49.080;11.896;2023-07-08T08:36:34;96744.00;;;33.00
33267;BMP180;19638;49.080;11.896;2023-07-08T08:40:39;96743.00;;;33.30
33267;BMP180;19638;49.080;11.896;2023-07-08T08:44:43;96741.00;;;34.30
33267;BMP180;19638;49.080;11.896;2023-07-08T08:48:53;96730.00;;;34.90
33267;BMP180;19638;49.080;11.896;2023-07-08T08:53:01;96744.00;;;34.90
33267;BMP180;19638;49.080;11.896;2023-07-08T08:57:11;96742.00;;;35.10
33267;BMP180;19638;49.080;11.896;2023-07-08T09:01:17;96735.00;;;35.80
33267;BMP180;19638;49.080;11.896;2023-07-08T09:05:21;96741.00;;;35.70
33267;BMP180;19638;49.080;11.896;2023-07-08T09:09:32;96747.00;;;36.00
33267;BMP180;19638;49.080;11.896;2023-07-08T09:13:42;96748.00;;;36.50
33267;BMP180;19638;49.080;11.896;2023-07-08T09:17:46;96733.00;;;36.70
33267;BMP180;19638;49.080;11.896;2023-07-08T09:21:58;96734.00;;;36.90
33267;BMP180;19638;49.080;11.896;2023-07-08T09:26:09;96727.00;;;36.20
33267;BMP180;19638;49.080;11.896;2023-07-08T09:30:14;96735.00;;;36.70
33267;BMP180;19638;49.080;11.896;2023-07-08T09:34:23;96733.00;;;36.60
33267;BMP180;19638;49.080;11.896;2023-07-08T09:38:34;96730.00;;;36.20
33267;BMP180;19638;49.080;11.896;2023-07-08T09:42:43;96741.00;;;36.00
33267;BMP180;19638;49.080;11.896;2023-07-08T09:46:48;96739.00;;;35.40
33267;BMP180;19638;49.080;11.896;2023-07-08T09:50:57;96740.00;;;35.60
33267;BMP180;19638;49.080;11.896;2023-07-08T09:55:07;96731.00;;;35.10
33267;BMP180;19638;49.080;11.896;2023-07-08T09:59:13;96739.00;;;34.70
33267;BMP180;19638;49.080;11.896;2023-07-08T10:03:24;96748.00;;;34.50
33267;BMP180;19638;49.080;11.896;2023-07-08T10:07:30;96757.00;;;34.90
33267;BMP180;19638;49.080;11.896;2023-07-08T10:11:44;96759.00;;;35.10
33267;BMP180;19638;49.080;11.896;2023-07-08T10:15:56;96763.00;;;35.10
33267;BMP180;19638;49.080;11.896;2023-07-08T10:19:59;96764.00;;;35.20
33267;BMP180;19638;49.080;11.896;2023-07-08T10:24:18;96764.00;;;35.60
33267;BMP180;19638;49.080;11.896;2023-07-08T10:28:33;96765.00;;;35.50
33267;BMP180;19638;49.080;11.896;2023-07-08T10:32:48;96765.00;;;34.90
33267;BMP180;19638;49.080;11.896;2023-07-08T10:37:04;96768.00;;;34.50
33267;BMP180;19638;49.080;11.896;2023-07-08T10:41:12;96769.00;;;34.70
33267;BMP180;19638;49.080;11.896;2023-07-08T10:45:26;96765.00;;;35.70
33267;BMP180;19638;49.080;11.896;2023-07-08T10:49:52;96769.00;;;36.40
33267;BMP180;19638;49.080;11.896;2023-07-08T10:54:19;96769.00;;;37.40
33267;BMP180;19638;49.080;11.896;2023-07-08T10:58:47;96765.00;;;37.90
33267;BMP180;19638;49.080;11.896;2023-07-08T11:07:30;96766.00;;;39.20
33267;BMP180;19638;49.080;11.896;2023-07-08T11:11:39;96768.00;;;39.00
33267;BMP180;19638;49.080;11.896;2023-07-08T11:15:51;96760.00;;;39.40
33267;BMP180;19638;49.080;11.896;2023-07-08T11:20:02;96761.00;;;39.90
33267;BMP180;19638;49.080;11.896;2023-07-08T11:24:22;96763.00;;;39.10
33267;BMP180;19638;49.080;11.896;2023-07-08T11:28:28;96762.00;;;38.00
33267;BMP180;19638;49.080;11.896;2023-07-08T11:32:35;96759.00;;;37.10
33267;BMP180;19638;49.080;11.896;2023-07-08T11:36:40;96752.00;;;36.50
33267;BMP180;19638;49.080;11.896;2023-07-08T11:40:55;96758.00;;;36.10
33267;BMP180;19638;49.080;11.896;2023-07-08T11:45:00;96758.00;;;35.90
33267;BMP180;19638;49.080;11.896;2023-07-08T11:49:12;96749.00;;;35.60
33267;BMP180;19638;49.080;11.896;2023-07-08T11:53:46;96754.00;;;35.30
33267;BMP180;19638;49.080;11.896;2023-07-08T11:57:59;96743.00;;;35.20
33267;BMP180;19638;49.080;11.896;2023-07-08T12:02:18;96750.00;;;35.10
33267;BMP180;19638;49.080;11.896;2023-07-08T12:06:46;96749.00;;;34.90
33267;BMP180;19638;49.080;11.896;2023-07-08T12:11:11;96749.00;;;34.60
33267;BMP180;19638;49.080;11.896;2023-07-08T12:15:17;96741.00;;;34.30
33267;BMP180;19638;49.080;11.896;2023-07-08T12:19:25;96736.00;;;34.10
33267;BMP180;19638;49.080;11.896;2023-07-08T12:23:43;96743.00;;;34.30
33267;BMP180;19638;49.080;11.896;2023-07-08T12:27:50;96742.00;;;34.20
33267;BMP180;19638;49.080;11.896;2023-07-08T12:31:55;96739.00;;;34.70
33267;BMP180;19638;49.080;11.896;2023-07-08T12:36:02;96739.00;;;35.90
33267;BMP180;19638;49.080;11.896;2023-07-08T12:40:10;96727.00;;;37.10
33267;BMP180;19638;49.080;11.896;2023-07-08T12:44:18;96728.00;;;37.80
33267;BMP180;19638;49.080;11.896;2023-07-08T12:48:25;96731.00;;;37.00
33267;BMP180;19638;49.080;11.896;2023-07-08T12:52:30;96730.00;;;36.20
33267;BMP180;19638;49.080;11.896;2023-07-08T12:56:34;96724.00;;;35.70
33267;BMP180;19638;49.080;11.896;2023-07-08T13:00:42;96727.00;;;35.50
33267;BMP180;19638;49.080;11.896;2023-07-08T13:04:49;96721.00;;;35.20
33267;BMP180;19638;49.080;11.896;2023-07-08T13:08:52;96730.00;;;34.80
33267;BMP180;19638;49.080;11.896;2023-07-08T13:12:59;96736.00;;;34.90
33267;BMP180;19638;49.080;11.896;2023-07-08T13:17:07;96729.00;;;35.00
33267;BMP180;19638;49.080;11.896;2023-07-08T13:21:13;96735.00;;;35.10
33267;BMP180;19638;49.080;11.896;2023-07-08T13:25:18;96726.00;;;35.10
33267;BMP180;19638;49.080;11.896;2023-07-08T13:29:24;96733.00;;;35.50
33267;BMP180;19638;49.080;11.896;2023-07-08T13:33:34;96728.00;;;36.20
33267;BMP180;19638;49.080;11.896;2023-07-08T13:37:37;96730.00;;;37.00
33267;BMP180;19638;49.080;11.896;2023-07-08T13:41:50;96735.00;;;37.10
33267;BMP180;19638;49.080;11.896;2023-07-08T13:45:55;96731.00;;;36.60
33267;BMP180;19638;49.080;11.896;2023-07-08T13:50:19;96732.00;;;36.30
33267;BMP180;19638;49.080;11.896;2023-07-08T13:54:25;96722.00;;;36.30
33267;BMP180;19638;49.080;11.896;2023-07-08T13:58:30;96727.00;;;36.50
33267;BMP180;19638;49.080;11.896;2023-07-08T14:02:36;96725.00;;;36.30
33267;BMP180;19638;49.080;11.896;2023-07-08T14:06:43;96728.00;;;36.30
33267;BMP180;19638;49.080;11.896;2023-07-08T14:10:46;96726.00;;;36.90
33267;BMP180;19638;49.080;11.896;2023-07-08T14:14:49;96717.00;;;37.60
33267;BMP180;19638;49.080;11.896;2023-07-08T14:18:56;96716.00;;;38.60
33267;BMP180;19638;49.080;11.896;2023-07-08T14:23:04;96718.00;;;39.40
33267;BMP180;19638;49.080;11.896;2023-07-08T14:27:08;96707.00;;;40.10
33267;BMP180;19638;49.080;11.896;2023-07-08T14:31:22;96703.00;;;40.40
33267;BMP180;19638;49.080;11.896;2023-07-08T14:35:28;96700.00;;;41.00
33267;BMP180;19638;49.080;11.896;2023-07-08T14:39:33;96705.00;;;40.70
33267;BMP180;19638;49.080;11.896;2023-07-08T14:43:36;96701.00;;;40.00
33267;BMP180;19638;49.080;11.896;2023-07-08T14:47:43;96704.00;;;39.30
33267;BMP180;19638;49.080;11.896;2023-07-08T14:51:47;96709.00;;;38.60
33267;BMP180;19638;49.080;11.896;2023-07-08T14:55:53;96700.00;;;38.10
33267;BMP180;19638;49.080;11.896;2023-07-08T14:59:56;96705.00;;;38.60
33267;BMP180;19638;49.080;11.896;2023-07-08T15:03:59;96705.00;;;38.70
33267;BMP180;19638;49.080;11.896;2023-07-08T15:08:03;96697.00;;;38.60
33267;BMP180;19638;49.080;11.896;2023-07-08T15:12:11;96693.00;;;38.20
33267;BMP180;19638;49.080;11.896;2023-07-08T15:16:20;96693.00;;;37.90
33267;BMP180;19638;49.080;11.896;2023-07-08T15:20:24;96693.00;;;37.70
33267;BMP180;19638;49.080;11.896;2023-07-08T15:24:27;96695.00;;;37.80
33267;BMP180;19638;49.080;11.896;2023-07-08T15:28:40;96686.00;;;38.10
33267;BMP180;19638;49.080;11.896;2023-07-08T15:32:49;96687.00;;;38.00
33267;BMP180;19638;49.080;11.896;2023-07-08T15:36:53;96679.00;;;38.40
33267;BMP180;19638;49.080;11.896;2023-07-08T15:41:19;96680.00;;;38.80
33267;BMP180;19638;49.080;11.896;2023-07-08T15:45:28;96676.00;;;39.10
33267;BMP180;19638;49.080;11.896;2023-07-08T15:49:31;96677.00;;;39.50
33267;BMP180;19638;49.080;11.896;2023-07-08T15:53:38;96673.00;;;39.60
33267;BMP180;19638;49.080;11.896;2023-07-08T15:57:44;96674.00;;;39.90
33267;BMP180;19638;49.080;11.896;2023-07-08T16:01:50;96670.00;;;39.80
33267;BMP180;19638;49.080;11.896;2023-07-08T16:05:58;96676.00;;;39.00
33267;BMP180;19638;49.080;11.896;2023-07-08T16:10:03;96679.00;;;39.00
33267;BMP180;19638;49.080;11.896;2023-07-08T16:14:08;96678.00;;;38.80
33267;BMP180;19638;49.080;11.896;2023-07-08T16:18:16;96672.00;;;39.00
33267;BMP180;19638;49.080;11.896;2023-07-08T16:22:19;96684.00;;;39.30
33267;BMP180;19638;49.080;11.896;2023-07-08T16:26:28;96678.00;;;39.60
33267;BMP180;19638;49.080;11.896;2023-07-08T16:30:31;96684.00;;;39.60
33267;BMP180;19638;49.080;11.896;2023-07-08T16:34:39;96678.00;;;39.60
33267;BMP180;19638;49.080;11.896;2023-07-08T16:38:44;96671.00;;;39.80
33267;BMP180;19638;49.080;11.896;2023-07-08T16:42:49;96659.00;;;40.00
33267;BMP180;19638;49.080;11.896;2023-07-08T16:46:52;96669.00;;;40.30
33267;BMP180;19638;49.080;11.896;2023-07-08T16:51:01;96665.00;;;40.50
33267;BMP180;19638;49.080;11.896;2023-07-08T16:55:08;96667.00;;;40.80
33267;BMP180;19638;49.080;11.896;2023-07-08T16:59:14;96666.00;;;40.40
33267;BMP180;19638;49.080;11.896;2023-07-08T17:03:18;96666.00;;;40.20
33267;BMP180;19638;49.080;11.896;2023-07-08T17:07:23;96671.00;;;40.40
33267;BMP180;19638;49.080;11.896;2023-07-08T17:11:28;96669.00;;;40.70
33267;BMP180;19638;49.080;11.896;2023-07-08T17:15:32;96666.00;;;40.80
33267;BMP180;19638;49.080;11.896;2023-07-08T17:19:38;96669.00;;;41.00
33267;BMP180;19638;49.080;11.896;2023-07-08T17:23:43;96680.00;;;41.10
33267;BMP180;19638;49.080;11.896;2023-07-08T17:27:47;96672.00;;;41.10
33267;BMP180;19638;49.080;11.896;2023-07-08T17:31:55;96674.00;;;41.20
33267;BMP180;19638;49.080;11.896;2023-07-08T17:36:09;96670.00;;;41.20
33267;BMP180;19638;49.080;11.896;2023-07-08T17:40:16;96668.00;;;41.30
33267;BMP180;19638;49.080;11.896;2023-07-08T17:44:24;96672.00;;;41.20
33267;BMP180;19638;49.080;11.896;2023-07-08T17:48:27;96670.00;;;41.00
33267;BMP180;19638;49.080;11.896;2023-07-08T17:52:31;96682.00;;;40.70
33267;BMP180;19638;49.080;11.896;2023-07-08T17:56:40;96678.00;;;40.40
33267;BMP180;19638;49.080;11.896;2023-07-08T18:00:45;96677.00;;;39.30
33267;BMP180;19638;49.080;11.896;2023-07-08T18:04:53;96675.00;;;37.70
33267;BMP180;19638;49.080;11.896;2023-07-08T18:08:56;96677.00;;;35.90
33267;BMP180;19638;49.080;11.896;2023-07-08T18:13:05;96673.00;;;34.50
33267;BMP180;19638;49.080;11.896;2023-07-08T18:17:10;96685.00;;;33.40
33267;BMP180;19638;49.080;11.896;2023-07-08T18:21:16;96680.00;;;32.60
33267;BMP180;19638;49.080;11.896;2023-07-08T18:25:21;96686.00;;;31.60
33267;BMP180;19638;49.080;11.896;2023-07-08T18:29:27;96684.00;;;30.60
33267;BMP180;19638;49.080;11.896;2023-07-08T18:33:31;96682.00;;;29.80
33267;BMP180;19638;49.080;11.896;2023-07-08T18:37:36;96681.00;;;29.20
33267;BMP180;19638;49.080;11.896;2023-07-08T18:41:46;96683.00;;;28.50
33267;BMP180;19638;49.080;11.896;2023-07-08T18:45:52;96687.00;;;28.00
33267;BMP180;19638;49.080;11.896;2023-07-08T18:49:57;96682.00;;;27.50
33267;BMP180;19638;49.080;11.896;2023-07-08T18:54:00;96685.00;;;27.10
33267;BMP180;19638;49.080;11.896;2023-07-08T18:58:09;96687.00;;;26.60
33267;BMP180;19638;49.080;11.896;2023-07-08T19:02:30;96695.00;;;26.10
33267;BMP180;19638;49.080;11.896;2023-07-08T19:06:36;96701.00;;;25.70
33267;BMP180;19638;49.080;11.896;2023-07-08T19:10:39;96702.00;;;25.40
33267;BMP180;19638;49.080;11.896;2023-07-08T19:14:45;96703.00;;;25.00
33267;BMP180;19638;49.080;11.896;2023-07-08T19:18:51;96701.00;;;24.70
33267;BMP180;19638;49.080;11.896;2023-07-08T19:22:56;96702.00;;;24.40
33267;BMP180;19638;49.080;11.896;2023-07-08T19:27:00;96706.00;;;24.00
33267;BMP180;19638;49.080;11.896;2023-07-08T19:31:17;96711.00;;;23.70
33267;BMP180;19638;49.080;11.896;2023-07-08T19:35:35;96713.00;;;23.40
33267;BMP180;19638;49.080;11.896;2023-07-08T19:39:38;96711.00;;;23.20
33267;BMP180;19638;49.080;11.896;2023-07-08T19:43:43;96714.00;;;23.10
33267;BMP180;19638;49.080;11.896;2023-07-08T19:47:47;96714.00;;;22.90
33267;BMP180;19638;49.080;11.896;2023-07-08T19:51:53;96712.00;;;22.70
33267;BMP180;19638;49.080;11.896;2023-07-08T19:55:57;96716.00;;;22.50
33267;BMP180;19638;49.080;11.896;2023-07-08T20:00:01;96713.00;;;22.30
33267;BMP180;19638;49.080;11.896;2023-07-08T20:04:05;96718.00;;;22.10
33267;BMP180;19638;49.080;11.896;2023-07-08T20:08:22;96707.00;;;21.90
33267;BMP180;19638;49.080;11.896;2023-07-08T20:12:28;96713.00;;;21.80
33267;BMP180;19638;49.080;11.896;2023-07-08T20:16:31;96711.00;;;21.60
33267;BMP180;19638;49.080;11.896;2023-07-08T20:20:37;96706.00;;;21.50
33267;BMP180;19638;49.080;11.896;2023-07-08T20:24:43;96715.00;;;21.50
33267;BMP180;19638;49.080;11.896;2023-07-08T20:28:50;96709.00;;;21.40
33267;BMP180;19638;49.080;11.896;2023-07-08T20:32:59;96715.00;;;21.30
33267;BMP180;19638;49.080;11.896;2023-07-08T20:37:07;96728.00;;;21.20
33267;BMP180;19638;49.080;11.896;2023-07-08T20:41:12;96728.00;;;21.10
33267;BMP180;19638;49.080;11.896;2023-07-08T20:45:18;96735.00;;;21.00
33267;BMP180;19638;49.080;11.896;2023-07-08T20:49:26;96734.00;;;20.90
33267;BMP180;19638;49.080;11.896;2023-07-08T20:53:38;96734.00;;;20.70
33267;BMP180;19638;49.080;11.896;2023-07-08T20:57:43;96731.00;;;20.50
33267;BMP180;19638;49.080;11.896;2023-07-08T21:01:49;96741.00;;;20.50
33267;BMP180;19638;49.080;11.896;2023-07-08T21:05:55;96742.00;;;20.50
33267;BMP180;19638;49.080;11.896;2023-07-08T21:10:01;96748.00;;;20.40
33267;BMP180;19638;49.080;11.896;2023-07-08T21:14:06;96752.00;;;20.40
33267;BMP180;19638;49.080;11.896;2023-07-08T21:18:11;96753.00;;;20.40
33267;BMP180;19638;49.080;11.896;2023-07-08T21:22:15;96750.00;;;20.40
33267;BMP180;19638;49.080;11.896;2023-07-08T21:26:22;96759.00;;;20.30
33267;BMP180;19638;49.080;11.896;2023-07-08T21:30:29;96755.00;;;20.20
33267;BMP180;19638;49.080;11.896;2023-07-08T21:34:33;96760.00;;;20.10
33267;BMP180;19638;49.080;11.896;2023-07-08T21:38:36;96759.00;;;20.10
33267;BMP180;19638;49.080;11.896;2023-07-08T21:42:39;96749.00;;;20.00
33267;BMP180;19638;49.080;11.896;2023-07-08T21:46:47;96755.00;;;19.80
33267;BMP180;19638;49.080;11.896;2023-07-08T21:50:57;96753.00;;;19.60
33267;BMP180;19638;49.080;11.896;2023-07-08T21:55:00;96760.00;;;19.50
33267;BMP180;19638;49.080;11.896;2023-07-08T21:59:08;96746.00;;;19.40
33267;BMP180;19638;49.080;11.896;2023-07-08T22:03:19;96752.00;;;19.40
33267;BMP180;19638;49.080;11.896;2023-07-08T22:07:23;96760.00;;;19.30
33267;BMP180;19638;49.080;11.896;2023-07-08T22:11:29;96754.00;;;19.20
33267;BMP180;19638;49.080;11.896;2023-07-08T22:15:35;96756.00;;;19.20
33267;BMP180;19638;49.080;11.896;2023-07-08T22:19:41;96749.00;;;19.10
33267;BMP180;19638;49.080;11.896;2023-07-08T22:23:44;96752.00;;;19.00
33267;BMP180;19638;49.080;11.896;2023-07-08T22:27:48;96758.00;;;18.80
33267;BMP180;19638;49.080;11.896;2023-07-08T22:31:57;96762.00;;;18.70
33267;BMP180;19638;49.080;11.896;2023-07-08T22:36:03;96766.00;;;18.60
33267;BMP180;19638;49.080;11.896;2023-07-08T22:40:13;96764.00;;;18.50
33267;BMP180;19638;49.080;11.896;2023-07-08T22:44:16;96764.00;;;18.40
33267;BMP180;19638;49.080;11.896;2023-07-08T22:48:22;96764.00;;;18.10
33267;BMP180;19638;49.080;11.896;2023-07-08T22:52:34;96768.00;;;17.90
33267;BMP180;19638;49.080;11.896;2023-07-08T22:56:42;96763.00;;;17.80
33267;BMP180;19638;49.080;11.896;2023-07-08T23:00:45;96761.00;;;17.80
33267;BMP180;19638;49.080;11.896;2023-07-08T23:04:50;96764.00;;;17.70
33267;BMP180;19638;49.080;11.896;2023-07-08T23:08:58;96763.00;;;17.70
33267;BMP180;19638;49.080;11.896;2023-07-08T23:13:14;96765.00;;;17.50
33267;BMP180;19638;49.080;11.896;2023-07-08T23:17:36;96775.00;;;17.50
33267;BMP180;19638;49.080;11.896;2023-07-08T23:21:42;96762.00;;;17.50
33267;BMP180;19638;49.080;11.896;2023-07-08T23:25:47;96767.00;;;17.50
33267;BMP180;19638;49.080;11.896;2023-07-08T23:29:52;96770.00;;;17.50